Time;durP1;ratioP1;P1;durP2;ratioP2;P2;SDS_P1;SDS_P2;PMS_P1;PMS_P2;Temp;Humidity;BMP_temperature;BMP_pressure;BME280_temperature;BME280_humidity;BME280_pressure;Samples;Min_cycle;Max_cycle;Signal;HPM_P1;HPM_P2
2021/10/28 00:14:06;;;;;;;128.65;54.03;;;5.00;99.90;;;;;;6211108;23;20020;-85
2021/10/28 00:16:56;;;;;;;158.15;63.75;;;5.10;99.90;;;;;;6282307;22;20042;-84
2021/10/28 00:19:44;;;;;;;153.23;59.38;;;5.10;99.90;;;;;;6283688;22;20046;-84
2021/10/28 00:22:31;;;;;;;149.85;60.17;;;5.00;99.90;;;;;;6302911;22;20119;-84
2021/10/28 00:25:18;;;;;;;125.95;55.00;;;4.80;99.90;;;;;;6281637;22;20112;-84
2021/10/28 00:28:07;;;;;;;117.03;51.50;;;4.70;99.90;;;;;;6281876;22;20181;-86
2021/10/28 00:30:54;;;;;;;122.82;50.40;;;4.50;99.90;;;;;;6283366;22;20053;-86
2021/10/28 00:33:44;;;;;;;108.25;46.97;;;4.40;99.90;;;;;;6306628;22;20100;-85
2021/10/28 00:36:31;;;;;;;100.57;43.63;;;4.30;99.90;;;;;;6281844;22;20027;-85
2021/10/28 00:39:19;;;;;;;114.00;45.95;;;4.20;99.90;;;;;;6282438;22;20095;-85
2021/10/28 00:42:07;;;;;;;104.28;45.20;;;4.10;99.90;;;;;;6259935;22;20038;-85
2021/10/28 00:44:54;;;;;;;91.88;42.05;;;4.00;99.90;;;;;;6305641;22;20108;-85
2021/10/28 00:47:42;;;;;;;109.78;44.08;;;3.90;99.90;;;;;;6263330;22;20027;-84
2021/10/28 00:50:31;;;;;;;107.50;45.53;;;3.80;99.90;;;;;;6260619;22;20434;-85
2021/10/28 00:53:20;;;;;;;108.97;46.55;;;3.70;99.90;;;;;;6302855;22;20095;-85
2021/10/28 00:56:07;;;;;;;111.60;47.33;;;3.70;99.90;;;;;;6303998;22;20023;-86
2021/10/28 00:58:55;;;;;;;105.13;46.85;;;3.70;99.90;;;;;;6283605;22;20107;-85
2021/10/28 01:01:44;;;;;;;122.10;51.17;;;3.60;99.90;;;;;;6305146;22;20039;-85
2021/10/28 01:04:31;;;;;;;122.30;51.55;;;3.60;99.90;;;;;;6306061;22;20065;-85
2021/10/28 01:07:22;;;;;;;137.68;52.97;;;3.60;99.90;;;;;;6305776;22;20424;-85
2021/10/28 01:10:10;;;;;;;134.00;53.28;;;3.50;99.90;;;;;;6305225;22;20038;-85
2021/10/28 01:12:59;;;;;;;115.38;48.95;;;3.50;99.90;;;;;;6281925;22;20023;-85
2021/10/28 01:15:53;;;;;;;124.50;50.15;;;3.50;99.90;;;;;;6303606;22;20407;-85
2021/10/28 01:18:42;;;;;;;120.38;48.95;;;3.40;99.90;;;;;;6281902;22;20055;-85
2021/10/28 01:21:31;;;;;;;126.40;51.00;;;3.40;99.90;;;;;;6301914;22;20030;-84
2021/10/28 01:24:19;;;;;;;130.48;51.22;;;3.30;99.90;;;;;;6295426;22;20027;-85
2021/10/28 01:27:08;;;;;;;133.88;50.92;;;3.20;99.90;;;;;;6282028;22;20088;-85
2021/10/28 01:29:56;;;;;;;110.95;44.65;;;3.20;99.90;;;;;;6306420;22;20406;-85
2021/10/28 01:32:45;;;;;;;92.35;40.05;;;3.20;99.90;;;;;;6282679;22;20035;-85
2021/10/28 01:35:35;;;;;;;91.63;39.03;;;3.20;99.90;;;;;;6283465;22;20031;-85
2021/10/28 01:38:26;;;;;;;103.90;43.00;;;3.20;99.90;;;;;;6283521;22;20062;-85
2021/10/28 01:41:35;;;;;;;109.53;43.92;;;3.30;99.90;;;;;;6205074;23;20126;-85
2021/10/28 01:44:27;;;;;;;186.75;60.20;;;3.20;99.90;;;;;;6211620;23;20107;-85
2021/10/28 01:47:17;;;;;;;131.02;52.28;;;3.40;99.90;;;;;;6211600;23;20048;-85
2021/10/28 01:50:07;;;;;;;170.82;61.72;;;3.60;99.90;;;;;;6189380;23;20029;-86
2021/10/28 01:52:58;;;;;;;463.50;79.93;;;3.50;99.90;;;;;;6209492;23;20102;-85
2021/10/28 01:55:47;;;;;;;458.50;82.53;;;3.80;99.90;;;;;;6211962;23;20131;-85
2021/10/28 01:58:35;;;;;;;597.53;90.25;;;4.00;99.90;;;;;;6212611;23;20101;-85
2021/10/28 02:01:23;;;;;;;683.03;96.43;;;4.20;99.90;;;;;;6213323;23;20029;-85
2021/10/28 02:04:13;;;;;;;587.92;92.25;;;4.30;99.90;;;;;;6191437;23;20032;-85
2021/10/28 02:07:01;;;;;;;242.02;80.22;;;4.40;99.90;;;;;;6189225;23;20055;-85
2021/10/28 02:09:48;;;;;;;257.52;80.72;;;4.40;99.90;;;;;;6211880;23;20091;-85
2021/10/28 02:12:42;;;;;;;235.30;76.95;;;4.40;99.90;;;;;;6242353;22;20077;-85
2021/10/28 02:15:29;;;;;;;262.08;76.05;;;4.30;99.90;;;;;;6285797;22;20046;-85
2021/10/28 02:18:16;;;;;;;244.65;73.45;;;4.20;99.90;;;;;;6306762;22;20084;-84
2021/10/28 02:21:04;;;;;;;382.33;78.35;;;4.00;99.90;;;;;;6283429;22;20059;-85
2021/10/28 02:23:51;;;;;;;220.80;71.53;;;3.90;99.90;;;;;;6284295;22;20027;-85
2021/10/28 02:26:40;;;;;;;220.00;70.00;;;3.80;99.90;;;;;;6305741;22;20118;-84
2021/10/28 02:29:28;;;;;;;547.95;88.47;;;3.80;99.90;;;;;;6286816;22;20030;-85
2021/10/28 02:32:18;;;;;;;301.85;73.03;;;3.70;99.90;;;;;;6267797;22;20023;-86
2021/10/28 02:35:05;;;;;;;395.20;77.78;;;3.80;99.90;;;;;;6290276;22;20080;-84
2021/10/28 02:37:55;;;;;;;234.23;66.13;;;3.70;99.90;;;;;;6312732;22;20029;-85
2021/10/28 02:40:43;;;;;;;349.60;73.97;;;3.70;99.90;;;;;;6311954;22;20023;-86
2021/10/28 02:43:31;;;;;;;249.45;68.82;;;3.50;99.90;;;;;;6268224;22;20035;-85
2021/10/28 02:46:18;;;;;;;243.65;72.22;;;3.50;99.90;;;;;;6285975;22;20092;-85
2021/10/28 02:49:11;;;;;;;212.30;67.72;;;3.60;99.90;;;;;;6311650;22;20023;-85
2021/10/28 02:52:02;;;;;;;232.65;70.60;;;3.60;99.90;;;;;;6287613;22;20030;-85
2021/10/28 02:54:49;;;;;;;236.02;72.38;;;3.70;99.90;;;;;;6308219;22;20114;-85
2021/10/28 02:57:42;;;;;;;266.35;74.70;;;3.80;99.90;;;;;;6265961;22;20019;-85
2021/10/28 03:00:32;;;;;;;265.90;77.13;;;3.90;99.90;;;;;;6290334;22;20053;-85
2021/10/28 03:03:20;;;;;;;347.10;82.30;;;4.00;99.90;;;;;;6293269;22;20024;-85
2021/10/28 03:06:08;;;;;;;270.65;74.80;;;4.30;99.90;;;;;;6292309;22;20038;-85
2021/10/28 03:08:57;;;;;;;263.33;78.07;;;4.30;99.90;;;;;;6308311;22;20072;-85
2021/10/28 03:11:48;;;;;;;334.33;78.78;;;4.30;99.90;;;;;;6286043;22;20030;-85
2021/10/28 03:14:43;;;;;;;299.33;73.22;;;4.20;99.90;;;;;;6310757;22;20038;-85
2021/10/28 03:19:18;;;;;;;296.73;75.45;;;4.20;99.90;;;;;;6313972;22;20030;-85
2021/10/28 03:26:52;;;;;;;375.02;76.88;;;4.20;99.90;;;;;;6324038;22;20024;-82
2021/10/28 03:29:42;;;;;;;347.98;76.63;;;4.30;99.90;;;;;;6269050;22;20027;-85
2021/10/28 03:32:32;;;;;;;312.38;76.30;;;4.40;99.90;;;;;;6317443;22;20050;-85
2021/10/28 03:35:20;;;;;;;290.20;74.05;;;4.50;99.90;;;;;;6315428;22;20116;-85
2021/10/28 03:38:17;;;;;;;301.63;78.47;;;4.60;99.90;;;;;;6267950;22;20061;-84
2021/10/28 03:56:26;;;;;;;395.00;81.43;;;4.80;99.90;;;;;;6302897;22;20430;-85
2021/10/28 04:02:31;;;;;;;587.33;88.97;;;4.90;99.90;;;;;;6281851;22;20080;-85
2021/10/28 04:17:26;;;;;;;464.27;93.53;;;5.00;99.90;;;;;;6308561;22;20019;-82
2021/10/28 04:29:34;;;;;;;507.42;98.47;;;5.10;99.90;;;;;;6288419;22;20031;-83
2021/10/28 04:32:22;;;;;;;872.85;114.90;;;5.10;99.90;;;;;;6286255;22;20027;-82
2021/10/28 04:35:12;;;;;;;439.75;91.18;;;5.00;99.90;;;;;;6284533;22;20136;-81
2021/10/28 04:37:59;;;;;;;690.05;104.70;;;5.10;99.90;;;;;;6285050;22;20023;-83
2021/10/28 04:40:55;;;;;;;454.55;94.38;;;5.10;99.90;;;;;;6307088;22;20042;-82
2021/10/28 04:43:42;;;;;;;507.45;96.65;;;5.10;99.90;;;;;;6246950;22;20023;-82
2021/10/28 04:46:30;;;;;;;677.88;110.10;;;5.20;99.90;;;;;;6265824;22;20070;-83
2021/10/28 04:49:26;;;;;;;678.92;106.15;;;5.20;99.90;;;;;;6289020;22;20031;-82
2021/10/28 04:52:21;;;;;;;622.67;104.03;;;5.20;99.90;;;;;;6309788;22;20367;-81
2021/10/28 04:55:12;;;;;;;674.05;109.53;;;5.20;99.90;;;;;;6310415;22;20042;-83
2021/10/28 04:58:04;;;;;;;705.75;110.18;;;5.20;99.90;;;;;;6305350;22;20108;-84
2021/10/28 05:00:51;;;;;;;515.63;98.57;;;5.20;99.90;;;;;;6268582;22;20046;-82
2021/10/28 05:03:45;;;;;;;425.83;92.53;;;5.20;99.90;;;;;;6287536;22;20426;-83
2021/10/28 05:06:35;;;;;;;670.13;106.38;;;5.20;99.90;;;;;;6283779;22;20035;-82
2021/10/28 05:09:26;;;;;;;425.80;94.38;;;5.10;99.90;;;;;;6305308;22;20373;-82
2021/10/28 05:12:14;;;;;;;702.63;107.03;;;5.20;99.90;;;;;;6316954;22;20085;-82
2021/10/28 05:15:02;;;;;;;460.05;94.97;;;5.10;99.90;;;;;;6306730;22;20023;-83
2021/10/28 05:17:51;;;;;;;589.25;97.65;;;5.10;99.90;;;;;;6306870;22;20078;-82
2021/10/28 05:20:44;;;;;;;491.95;91.07;;;5.00;99.90;;;;;;6264699;22;20051;-83
2021/10/28 05:23:31;;;;;;;570.22;96.00;;;5.00;99.90;;;;;;6308260;22;20023;-83
2021/10/28 05:26:19;;;;;;;984.65;122.82;;;4.90;99.90;;;;;;6284298;22;20039;-82
2021/10/28 05:29:06;;;;;;;574.85;96.03;;;4.90;99.90;;;;;;6264335;22;20472;-84
2021/10/28 05:31:56;;;;;;;746.97;100.75;;;4.80;99.90;;;;;;6281057;22;20042;-83
2021/10/28 05:34:49;;;;;;;601.67;97.18;;;4.70;99.90;;;;;;6280131;22;20139;-83
2021/10/28 05:37:36;;;;;;;600.13;101.05;;;4.70;99.90;;;;;;6281520;22;20099;-82
2021/10/28 05:40:24;;;;;;;547.42;99.65;;;4.70;99.90;;;;;;6304654;22;20031;-82
2021/10/28 05:43:14;;;;;;;515.90;91.47;;;4.60;99.90;;;;;;6279592;22;20129;-84
2021/10/28 05:46:01;;;;;;;527.65;95.03;;;4.70;99.90;;;;;;6307564;22;20038;-83
2021/10/28 05:48:48;;;;;;;557.08;98.90;;;4.70;99.90;;;;;;6302888;22;20053;-86
2021/10/28 05:51:41;;;;;;;441.00;90.25;;;4.70;99.90;;;;;;6302944;22;20102;-86
2021/10/28 05:54:28;;;;;;;323.40;81.97;;;4.70;99.90;;;;;;6278678;22;20031;-85
2021/10/28 05:57:17;;;;;;;276.23;78.05;;;4.70;99.90;;;;;;6282637;22;20046;-86
2021/10/28 06:00:11;;;;;;;345.52;81.47;;;4.80;99.90;;;;;;6280460;22;20023;-87
2021/10/28 06:03:00;;;;;;;287.23;76.72;;;4.80;99.90;;;;;;6286208;22;20023;-87
2021/10/28 06:05:51;;;;;;;322.08;82.20;;;4.80;99.90;;;;;;6265227;22;20385;-88
2021/10/28 06:08:39;;;;;;;316.60;81.00;;;4.80;99.90;;;;;;6281702;22;20031;-88
2021/10/28 06:11:30;;;;;;;272.83;74.60;;;4.80;99.90;;;;;;6282540;22;20023;-87
2021/10/28 06:14:23;;;;;;;283.90;74.43;;;4.90;99.90;;;;;;6305250;22;20050;-88
2021/10/28 06:17:13;;;;;;;302.15;75.45;;;4.90;99.90;;;;;;6307725;22;20023;-87
2021/10/28 06:20:03;;;;;;;269.80;72.90;;;4.90;99.90;;;;;;6281965;22;20027;-87
2021/10/28 06:22:52;;;;;;;272.63;73.30;;;5.00;99.90;;;;;;6281634;22;20027;-87
2021/10/28 06:25:41;;;;;;;255.05;69.65;;;5.00;99.90;;;;;;6264450;22;20075;-87
2021/10/28 06:28:31;;;;;;;216.10;68.20;;;5.00;99.90;;;;;;6260690;22;20513;-87
2021/10/28 06:31:23;;;;;;;225.43;68.10;;;5.10;99.90;;;;;;6308917;22;20027;-87
2021/10/28 06:34:21;;;;;;;259.35;71.10;;;5.20;99.90;;;;;;6287413;22;20027;-87
2021/10/28 06:37:10;;;;;;;250.35;71.15;;;5.20;99.90;;;;;;6307574;22;20059;-87
2021/10/28 06:40:04;;;;;;;251.35;73.13;;;5.30;99.90;;;;;;6307061;22;20050;-87
2021/10/28 06:42:55;;;;;;;217.85;64.93;;;5.50;99.90;;;;;;6268189;22;20096;-87
2021/10/28 06:45:44;;;;;;;237.38;65.95;;;5.50;99.90;;;;;;6251330;22;20113;-87
2021/10/28 06:48:33;;;;;;;263.45;68.72;;;5.50;99.90;;;;;;6309114;22;20106;-86
2021/10/28 06:51:21;;;;;;;210.98;67.88;;;5.60;99.90;;;;;;6264418;22;20430;-89
2021/10/28 06:54:23;;;;;;;228.13;66.80;;;5.70;99.90;;;;;;6306846;22;20462;-88
2021/10/28 06:57:33;;;;;;;213.18;64.68;;;5.90;99.90;;;;;;6267163;22;20094;-87
2021/10/28 07:03:28;;;;;;;166.98;59.30;;;6.50;99.90;;;;;;6307008;22;20037;-87
2021/10/28 07:06:26;;;;;;;182.38;59.38;;;6.60;99.90;;;;;;6307169;22;20023;-87
2021/10/28 07:09:30;;;;;;;142.23;54.05;;;6.60;99.90;;;;;;6307358;22;20050;-87
2021/10/28 07:12:23;;;;;;;127.10;51.05;;;6.70;99.90;;;;;;6290071;22;20061;-87
2021/10/28 07:15:17;;;;;;;110.00;46.55;;;6.70;99.90;;;;;;6285202;22;20098;-87
2021/10/28 07:18:21;;;;;;;100.20;45.08;;;6.70;99.90;;;;;;6309091;22;20030;-86
2021/10/28 07:27:20;;;;;;;88.88;43.65;;;6.40;99.90;;;;;;6305890;22;20027;-88
2021/10/28 07:39:28;;;;;;;79.13;40.40;;;6.30;99.90;;;;;;6305613;22;20430;-87
2021/10/28 08:13:33;;;;;;;56.17;34.30;;;7.90;99.90;;;;;;6312185;22;20472;-86
2021/10/28 08:16:46;;;;;;;58.50;35.70;;;7.90;99.90;;;;;;6294406;22;20410;-87
2021/10/28 08:20:08;;;;;;;55.58;34.45;;;8.00;99.90;;;;;;6292534;22;20393;-88
2021/10/28 08:29:30;;;;;;;48.45;33.05;;;8.30;99.90;;;;;;6304536;22;20031;-88
2021/10/28 08:33:04;;;;;;;;;;;;;;;;;;;;;
2021/10/28 08:36:30;;;;;;;43.55;27.88;;;8.70;99.90;;;;;;6309623;22;20019;-90
2021/10/28 08:39:25;;;;;;;38.95;26.90;;;9.50;99.90;;;;;;6312475;22;20027;-90
2021/10/28 08:42:22;;;;;;;36.25;25.52;;;10.30;99.90;;;;;;6286284;22;20023;-89
2021/10/28 08:45:40;;;;;;;34.30;24.65;;;11.20;99.90;;;;;;6308935;22;20027;-89
2021/10/28 08:48:34;;;;;;;34.80;23.95;;;11.60;99.90;;;;;;6287254;22;20043;-89
2021/10/28 08:51:53;;;;;;;36.70;25.52;;;11.50;99.90;;;;;;6284630;22;20104;-88
2021/10/28 09:26:14;;;;;;;26.05;19.27;;;15.60;99.90;;;;;;6216806;23;20415;-90
2021/10/28 09:52:08;;;;;;;19.10;15.55;;;18.00;86.60;;;;;;6309602;22;20027;-88
2021/10/28 09:58:44;;;;;;;19.70;16.10;;;18.60;79.30;;;;;;6304300;22;20468;-89
2021/10/28 10:02:14;;;;;;;22.30;16.10;;;18.30;77.70;;;;;;6256811;22;20027;-88
2021/10/28 10:05:23;;;;;;;21.45;16.30;;;18.10;77.00;;;;;;6278214;22;20087;-89
2021/10/28 10:08:24;;;;;;;19.85;16.42;;;18.10;79.00;;;;;;6321078;22;20064;-88
2021/10/28 10:11:41;;;;;;;;;;;;;;;;;;;;;
2021/10/28 10:14:53;;;;;;;20.00;15.82;;;18.80;74.20;;;;;;6329931;22;20007;-89
2021/10/28 10:18:07;;;;;;;19.25;15.88;;;19.10;74.00;;;;;;6286343;22;20023;-89
2021/10/28 10:21:09;;;;;;;17.92;14.88;;;20.20;71.50;;;;;;6324595;22;20031;-88
2021/10/28 10:28:58;;;;;;;17.20;13.98;;;21.90;61.70;;;;;;6164744;23;20093;-90
2021/10/28 11:33:34;;;;;;;;;;;;;;;;;;;;;
2021/10/28 12:17:25;;;;;;;11.30;9.88;;;26.00;45.50;;;;;;6311090;22;20027;-88
2021/10/28 12:45:56;;;;;;;;;;;;;;;;;;;;;
2021/10/28 12:49:25;;;;;;;7.35;6.60;;;26.80;42.50;;;;;;6109232;23;20027;-89
2021/10/28 12:53:08;;;;;;;8.63;7.03;;;26.30;43.20;;;;;;6254069;22;20082;-88
2021/10/28 13:49:48;;;;;;;;;;;;;;;;;;;;;
2021/10/28 15:38:47;;;;;;;;;;;;;;;;;;;;;
2021/10/28 15:53:48;;;;;;;8.55;5.32;;;17.70;66.40;;;;;;5956798;24;20100;-87
2021/10/28 16:22:04;;;;;;;16.73;10.85;;;12.40;99.90;;;;;;5953603;24;20399;-86
2021/10/28 16:24:52;;;;;;;17.67;11.82;;;12.20;99.90;;;;;;5946171;24;20028;-87
2021/10/28 16:27:46;;;;;;;15.30;11.07;;;12.00;99.90;;;;;;5971694;24;20031;-88
2021/10/28 16:30:38;;;;;;;15.80;11.40;;;11.90;99.90;;;;;;5944137;24;20029;-88
2021/10/28 16:33:26;;;;;;;20.65;13.45;;;11.70;99.90;;;;;;5939022;24;20032;-87
2021/10/28 16:36:15;;;;;;;23.45;12.75;;;11.50;99.90;;;;;;5933009;24;20172;-87
2021/10/28 16:39:08;;;;;;;19.88;12.63;;;11.50;99.90;;;;;;5961588;24;20040;-87
2021/10/28 16:41:56;;;;;;;21.90;13.65;;;11.40;99.90;;;;;;5962920;24;20025;-87
2021/10/28 16:44:46;;;;;;;21.45;12.43;;;11.30;99.90;;;;;;5936303;24;20029;-88
2021/10/28 16:47:34;;;;;;;15.57;11.68;;;11.20;99.90;;;;;;5951593;24;20224;-88
2021/10/28 16:50:22;;;;;;;22.20;12.90;;;11.10;99.90;;;;;;5951162;24;20041;-89
2021/10/28 16:53:09;;;;;;;17.05;12.55;;;11.00;99.90;;;;;;5952484;24;20165;-86
2021/10/28 16:56:16;;;;;;;17.35;11.90;;;10.90;99.90;;;;;;5951796;24;20033;-87
2021/10/28 16:59:04;;;;;;;18.02;11.90;;;10.70;99.90;;;;;;5933549;24;20040;-88
2021/10/28 17:01:53;;;;;;;14.90;11.23;;;10.50;99.90;;;;;;5954664;24;20032;-89
2021/10/28 17:04:40;;;;;;;15.75;11.88;;;10.30;99.90;;;;;;5957096;24;20024;-89
2021/10/28 17:07:28;;;;;;;18.30;12.30;;;10.20;99.90;;;;;;5931281;24;20056;-89
2021/10/28 17:10:16;;;;;;;21.42;13.23;;;10.10;99.90;;;;;;5952086;24;20033;-88
2021/10/28 17:13:03;;;;;;;31.63;18.05;;;9.90;99.90;;;;;;5933847;24;20438;-89
2021/10/28 17:15:53;;;;;;;25.98;15.73;;;9.80;99.90;;;;;;5956232;24;20154;-90
2021/10/28 17:19:06;;;;;;;22.05;15.55;;;9.80;99.90;;;;;;5953474;24;20028;-90
2021/10/28 17:21:57;;;;;;;21.75;15.05;;;9.70;99.90;;;;;;5937531;23;20029;-89
2021/10/28 17:24:47;;;;;;;25.50;15.45;;;9.60;99.90;;;;;;6039628;23;20578;-89
2021/10/28 17:27:41;;;;;;;25.40;16.13;;;9.50;99.90;;;;;;6021705;23;20031;-89
2021/10/28 17:30:38;;;;;;;25.13;16.95;;;9.30;99.90;;;;;;6022156;23;20106;-89
2021/10/28 17:33:26;;;;;;;31.20;17.20;;;9.20;99.90;;;;;;6070251;23;20035;-88
2021/10/28 17:36:13;;;;;;;28.50;18.73;;;9.00;99.90;;;;;;6054141;23;20311;-88
2021/10/28 17:39:11;;;;;;;27.90;18.15;;;8.80;99.90;;;;;;6054745;23;20058;-89
2021/10/28 17:42:14;;;;;;;29.75;20.73;;;8.70;99.90;;;;;;6078539;23;20086;-88
2021/10/28 17:45:04;;;;;;;33.78;20.83;;;8.60;99.90;;;;;;6071855;23;20026;-90
2021/10/28 17:47:58;;;;;;;33.53;21.70;;;8.50;99.90;;;;;;6052367;23;20026;-89
2021/10/28 17:50:52;;;;;;;32.78;21.33;;;8.40;99.90;;;;;;6049408;23;20038;-89
2021/10/28 17:53:40;;;;;;;37.85;21.50;;;8.30;99.90;;;;;;6069896;23;20482;-88
2021/10/28 17:56:28;;;;;;;32.85;22.10;;;8.20;99.90;;;;;;6068814;23;20027;-89
2021/10/28 17:59:18;;;;;;;31.75;20.80;;;8.20;99.90;;;;;;6058727;23;20078;-89
2021/10/28 18:02:05;;;;;;;36.28;22.75;;;8.10;99.90;;;;;;6067512;23;20099;-88
2021/10/28 18:04:53;;;;;;;33.33;22.95;;;8.10;99.90;;;;;;6065262;23;20426;-88
2021/10/28 18:07:42;;;;;;;34.40;22.55;;;8.00;99.90;;;;;;6065692;23;20050;-89
2021/10/28 18:10:38;;;;;;;39.53;23.75;;;8.00;99.90;;;;;;6067627;23;20026;-91
2021/10/28 18:13:30;;;;;;;42.33;25.55;;;7.90;99.90;;;;;;6050236;23;20147;-89
2021/10/28 18:16:25;;;;;;;37.47;25.60;;;7.80;99.90;;;;;;6067360;23;20031;-90
2021/10/28 18:19:12;;;;;;;40.28;26.65;;;7.80;99.90;;;;;;6064886;23;20026;-90
2021/10/28 18:22:00;;;;;;;41.35;27.00;;;7.70;99.90;;;;;;6078767;23;20050;-90
2021/10/28 18:25:10;;;;;;;;;;;;;;;;;;;;;
2021/10/28 18:28:00;;;;;;;44.72;28.95;;;7.70;99.90;;;;;;6079280;23;20054;-90
2021/10/28 18:30:50;;;;;;;42.65;26.60;;;7.60;99.90;;;;;;6052522;23;20426;-89
2021/10/28 18:33:43;;;;;;;43.92;27.23;;;7.50;99.90;;;;;;6062810;23;20027;-90
2021/10/28 18:36:31;;;;;;;46.70;28.58;;;7.50;99.90;;;;;;6045397;23;20023;-89
2021/10/28 18:39:20;;;;;;;45.15;30.60;;;7.30;99.90;;;;;;6046823;23;20034;-90
2021/10/28 18:42:08;;;;;;;48.55;30.98;;;7.30;99.90;;;;;;6046289;23;20085;-89
2021/10/28 18:44:56;;;;;;;52.83;34.42;;;7.20;99.90;;;;;;6064635;23;20116;-90
2021/10/28 18:48:04;;;;;;;51.75;33.08;;;7.20;99.90;;;;;;6075912;23;20527;-89
2021/10/28 18:50:53;;;;;;;55.35;34.58;;;7.20;99.90;;;;;;6065299;23;20027;-91
2021/10/28 18:53:44;;;;;;;53.45;34.78;;;7.20;99.90;;;;;;6046356;23;20027;-90
2021/10/28 18:56:34;;;;;;;60.03;35.17;;;7.20;99.90;;;;;;6063654;23;20082;-89
2021/10/28 18:59:24;;;;;;;62.80;35.22;;;7.10;99.90;;;;;;6054485;23;20134;-89
2021/10/28 19:02:12;;;;;;;61.90;37.03;;;7.10;99.90;;;;;;6065249;23;20035;-90
2021/10/28 19:05:01;;;;;;;57.17;35.65;;;7.10;99.90;;;;;;6044111;23;20310;-89
2021/10/28 19:07:48;;;;;;;60.33;37.92;;;7.00;99.90;;;;;;6044329;23;20589;-89
2021/10/28 19:10:36;;;;;;;57.05;36.15;;;7.00;99.90;;;;;;6064665;23;20157;-89
2021/10/28 19:13:24;;;;;;;60.65;36.90;;;7.00;99.90;;;;;;6048086;23;20027;-89
2021/10/28 19:16:14;;;;;;;59.97;36.83;;;7.00;99.90;;;;;;6045678;23;20050;-90
2021/10/28 19:19:03;;;;;;;59.83;37.22;;;7.00;99.90;;;;;;6068813;23;20030;-86
2021/10/28 19:21:51;;;;;;;58.40;36.35;;;6.90;99.90;;;;;;6065621;23;20035;-88
2021/10/28 19:24:41;;;;;;;58.28;36.65;;;6.90;99.90;;;;;;6052842;23;20039;-89
2021/10/28 19:27:29;;;;;;;57.05;36.45;;;6.90;99.90;;;;;;6032837;23;20041;-88
2021/10/28 19:30:32;;;;;;;65.03;37.63;;;6.90;99.90;;;;;;6056269;23;20030;-89
2021/10/28 19:33:31;;;;;;;60.80;37.63;;;6.80;99.90;;;;;;6074929;23;20050;-88
2021/10/28 19:36:31;;;;;;;60.88;36.22;;;6.80;99.90;;;;;;6071942;23;20442;-88
2021/10/28 19:45:05;;;;;;;61.15;36.65;;;6.70;99.90;;;;;;6164091;23;20112;-88
2021/10/28 19:46:08;;;;;;;64.50;37.25;;;6.60;99.90;;;;;;6159076;23;20033;-89
2021/10/28 19:48:38;;;;;;;61.05;38.35;;;6.50;99.90;;;;;;6177455;23;20076;-88
2021/10/28 19:51:26;;;;;;;68.70;38.80;;;6.50;99.90;;;;;;6155260;23;20026;-88
2021/10/28 19:54:14;;;;;;;63.50;37.30;;;6.50;99.90;;;;;;6131392;23;20021;-88
2021/10/28 19:57:02;;;;;;;68.15;38.65;;;6.40;99.90;;;;;;6154082;23;20037;-88
2021/10/28 19:59:55;;;;;;;62.85;36.17;;;6.40;99.90;;;;;;6155986;23;20013;-88
2021/10/28 20:05:43;;;;;;;69.90;38.92;;;6.30;99.90;;;;;;6159721;23;20009;-88
2021/10/28 20:20:57;;;;;;;71.10;40.63;;;6.10;99.90;;;;;;6158460;23;20397;-89
2021/10/28 20:23:45;;;;;;;79.13;42.47;;;6.20;99.90;;;;;;6132580;23;20073;-89
2021/10/28 20:26:32;;;;;;;78.13;43.17;;;6.20;99.90;;;;;;6156420;23;20026;-91
2021/10/28 20:29:20;;;;;;;73.95;44.38;;;6.20;99.90;;;;;;6136769;23;20109;-89
2021/10/28 20:32:08;;;;;;;84.30;46.28;;;6.10;99.90;;;;;;6157217;23;20100;-89
2021/10/28 20:35:08;;;;;;;74.82;43.30;;;6.10;99.90;;;;;;6135583;23;20033;-89
2021/10/28 20:37:56;;;;;;;74.38;42.42;;;6.00;99.90;;;;;;6156437;23;20121;-89
2021/10/28 20:40:49;;;;;;;77.55;40.85;;;6.00;99.90;;;;;;6155873;23;20048;-88
2021/10/28 20:43:38;;;;;;;82.45;43.60;;;6.00;99.90;;;;;;6155148;23;20084;-89
2021/10/28 20:46:31;;;;;;;75.60;42.03;;;6.00;99.90;;;;;;6163528;23;20035;-89
2021/10/28 20:49:20;;;;;;;72.05;41.35;;;5.90;99.90;;;;;;6148056;23;20316;-88
2021/10/28 20:52:09;;;;;;;80.93;43.33;;;5.90;99.90;;;;;;6160381;23;20025;-88
2021/10/28 20:54:57;;;;;;;88.22;43.80;;;5.90;99.90;;;;;;6155865;23;20455;-88
2021/10/28 20:57:45;;;;;;;82.05;44.67;;;5.90;99.90;;;;;;6154357;23;20053;-87
2021/10/28 21:00:32;;;;;;;86.88;44.63;;;5.90;99.90;;;;;;6133987;23;20653;-87
2021/10/28 21:03:20;;;;;;;84.75;45.05;;;5.90;99.90;;;;;;6156557;23;20312;-87
2021/10/28 21:06:10;;;;;;;81.60;44.75;;;5.80;99.90;;;;;;6135801;23;20057;-88
2021/10/28 21:08:58;;;;;;;91.40;47.97;;;5.80;99.90;;;;;;6113731;23;20057;-87
2021/10/28 21:11:49;;;;;;;88.00;46.17;;;5.80;99.90;;;;;;6152981;23;20080;-87
2021/10/28 21:14:36;;;;;;;85.20;44.10;;;5.80;99.90;;;;;;6157482;23;20044;-87
2021/10/28 21:17:23;;;;;;;89.40;47.28;;;5.70;99.90;;;;;;6158813;23;20029;-87
2021/10/28 21:20:13;;;;;;;85.75;44.22;;;5.70;99.90;;;;;;6134860;23;20029;-88
2021/10/28 21:23:01;;;;;;;89.13;46.20;;;5.70;99.90;;;;;;6158024;23;20314;-88
2021/10/28 21:25:49;;;;;;;85.07;45.08;;;5.70;99.90;;;;;;6134481;23;20480;-87
2021/10/28 21:28:37;;;;;;;71.95;40.28;;;5.70;99.90;;;;;;6156358;23;20021;-87
2021/10/28 21:31:24;;;;;;;75.85;40.85;;;5.80;99.90;;;;;;6152830;23;20056;-88
2021/10/28 21:34:12;;;;;;;69.20;38.17;;;5.80;99.90;;;;;;6136427;23;20026;-87
2021/10/28 21:37:00;;;;;;;81.22;40.47;;;5.90;99.90;;;;;;6133234;23;20044;-87
2021/10/28 21:39:54;;;;;;;74.15;38.92;;;5.90;99.90;;;;;;6134831;23;20099;-87
2021/10/28 21:42:42;;;;;;;65.82;37.10;;;5.90;99.90;;;;;;6135048;23;20053;-87
2021/10/28 21:45:30;;;;;;;69.32;37.65;;;5.80;99.90;;;;;;6156030;23;20115;-88
2021/10/28 21:48:20;;;;;;;68.55;37.15;;;5.70;99.90;;;;;;6133332;23;20029;-88
2021/10/28 21:51:10;;;;;;;74.57;37.53;;;5.60;99.90;;;;;;6131623;23;20026;-86
2021/10/28 21:53:59;;;;;;;64.97;35.97;;;5.50;99.90;;;;;;6131506;23;20104;-87
2021/10/28 21:56:51;;;;;;;66.30;35.42;;;5.50;99.90;;;;;;6133088;23;20079;-88
2021/10/28 22:05:44;;;;;;;59.90;34.38;;;5.30;99.90;;;;;;6153745;23;20402;-89
2021/10/28 22:26:56;;;;;;;71.82;37.13;;;5.30;99.90;;;;;;6155510;23;20371;-87
2021/10/28 22:29:44;;;;;;;68.82;35.80;;;5.30;99.90;;;;;;6113207;23;20033;-87
2021/10/28 22:32:32;;;;;;;62.30;32.85;;;5.40;99.90;;;;;;6151932;23;20033;-87
2021/10/28 22:35:25;;;;;;;65.82;34.95;;;5.30;99.90;;;;;;6132944;23;20045;-88
2021/10/28 22:38:13;;;;;;;69.20;35.67;;;5.30;99.90;;;;;;6133460;23;20369;-87
2021/10/28 22:41:01;;;;;;;64.15;34.08;;;5.20;99.90;;;;;;6136239;23;20052;-87
2021/10/28 22:43:49;;;;;;;60.20;34.17;;;5.20;99.90;;;;;;6157629;23;20128;-88
2021/10/28 22:46:36;;;;;;;64.40;34.10;;;5.10;99.90;;;;;;6156415;23;20572;-87
2021/10/28 22:49:23;;;;;;;69.07;34.80;;;5.10;99.90;;;;;;6157174;23;20156;-88
2021/10/28 22:52:47;;;;;;;67.43;34.17;;;5.10;99.90;;;;;;6135503;23;20057;-86
2021/10/28 22:55:28;;;;;;;68.00;35.75;;;5.10;99.90;;;;;;6155362;23;20021;-87
2021/10/28 23:01:13;;;;;;;77.95;38.45;;;5.20;99.90;;;;;;6155738;23;20107;-86
2021/10/28 23:21:47;;;;;;;77.30;37.13;;;5.00;99.90;;;;;;6157286;23;20317;-88
2021/10/28 23:24:38;;;;;;;70.95;35.25;;;5.00;99.90;;;;;;6135492;23;20061;-89
2021/10/28 23:27:28;;;;;;;73.40;38.40;;;5.00;99.90;;;;;;6157009;23;20123;-87
2021/10/28 23:30:15;;;;;;;64.38;36.05;;;4.90;99.90;;;;;;6162902;23;20025;-88
2021/10/28 23:33:07;;;;;;;65.85;35.33;;;5.00;99.90;;;;;;6126975;23;20112;-87
2021/10/28 23:35:54;;;;;;;53.70;26.52;;;4.90;99.90;;;;;;6126631;23;20513;-87
2021/10/28 23:38:44;;;;;;;72.00;35.78;;;4.80;99.90;;;;;;6127519;23;20186;-88
2021/10/28 23:41:31;;;;;;;72.57;37.97;;;4.90;99.90;;;;;;6131478;23;20061;-87
2021/10/28 23:44:19;;;;;;;68.95;36.83;;;4.90;99.90;;;;;;6131948;23;20489;-86
2021/10/28 23:47:06;;;;;;;61.72;35.60;;;4.90;99.90;;;;;;6131750;23;20045;-90
2021/10/28 23:49:56;;;;;;;78.25;40.15;;;5.00;99.90;;;;;;6127736;23;20026;-89
2021/10/28 23:52:43;;;;;;;84.35;41.60;;;5.20;99.90;;;;;;6127633;23;20022;-86
2021/10/28 23:55:30;;;;;;;74.13;38.55;;;5.40;99.90;;;;;;6127667;23;20065;-88
2021/10/28 23:58:18;;;;;;;78.88;41.38;;;5.30;99.90;;;;;;6126655;23;20393;-87
